Windlesham, United Kingdom
Current Conditions -  °F | °C
As of 5:20 PM on Friday 19 Dec 2014 (Local Time) from EGLF Reporting Station
Clear Clear  
Wind Chill: 40°   Ceiling: Unl
Heat Index: 45°   Visibility: 6mi
Dew Point: 37°   Wind: 8mph
Humidity: 76%   Direction: 260°W
Pressure: 30.12"   Gusts: NA
Location:  51.37°N, 0.65°W
Report Text: EGLF 191720Z 26007KT 230V300 CAVOK 07/03 Q1020
Loading
Personal Weather Stations






























Interactive Weather Map New forecast layout! Learn more

10-Day Weather Forecast

Advertisements
Track Severe Weather on mobile